createdAt,value
2018-08-30T00:02:13.083Z,14.33
2018-08-30T00:04:41.501Z,14.30
2018-08-30T00:07:10.179Z,14.10
2018-08-30T00:09:38.781Z,13.03
2018-08-30T00:12:08.082Z,13.00
2018-08-30T00:14:36.692Z,12.57
2018-08-30T00:17:05.142Z,12.70
2018-08-30T00:19:34.058Z,12.17
2018-08-30T00:22:03.085Z,11.77
2018-08-30T00:24:31.537Z,12.17
2018-08-30T00:26:59.962Z,12.07
2018-08-30T00:29:28.382Z,11.23
2018-08-30T00:31:56.850Z,13.03
2018-08-30T00:34:25.792Z,11.27
2018-08-30T00:36:54.327Z,11.30
2018-08-30T00:39:23.147Z,11.37
2018-08-30T00:41:51.697Z,11.23
2018-08-30T00:44:20.129Z,10.80
2018-08-30T00:46:48.644Z,10.97
2018-08-30T00:49:17.774Z,10.37
2018-08-30T00:51:46.187Z,10.10
2018-08-30T00:54:14.808Z,11.77
2018-08-30T00:56:43.221Z,11.13
2018-08-30T00:59:11.677Z,11.43
2018-08-30T01:01:40.162Z,11.77
2018-08-30T01:04:08.650Z,11.33
2018-08-30T01:06:37.193Z,10.40
2018-08-30T01:09:06.779Z,10.87
2018-08-30T01:11:36.046Z,10.70
2018-08-30T01:14:04.588Z,11.23
2018-08-30T01:16:33.322Z,10.97
2018-08-30T01:19:01.768Z,11.07
2018-08-30T01:21:30.191Z,11.07
2018-08-30T01:23:58.583Z,11.63
2018-08-30T01:26:27.014Z,10.93
2018-08-30T01:28:55.420Z,11.10
2018-08-30T01:31:24.685Z,11.83
2018-08-30T01:33:53.084Z,11.40
2018-08-30T01:36:21.507Z,10.73
2018-08-30T01:38:50.524Z,11.90
2018-08-30T01:41:18.953Z,11.17
2018-08-30T01:43:47.438Z,11.43
2018-08-30T01:46:16.458Z,11.70
2018-08-30T01:48:44.870Z,11.23
2018-08-30T01:51:13.237Z,11.73
2018-08-30T01:53:41.708Z,10.80
2018-08-30T01:56:10.335Z,11.70
2018-08-30T01:58:38.889Z,11.03
2018-08-30T02:01:07.313Z,11.40
2018-08-30T02:03:35.765Z,10.53
2018-08-30T02:06:04.306Z,11.10
2018-08-30T02:08:32.821Z,11.07
2018-08-30T02:11:01.306Z,11.17
2018-08-30T02:13:29.723Z,10.47
2018-08-30T02:15:58.188Z,10.90
2018-08-30T02:18:26.568Z,11.13
2018-08-30T02:20:55.327Z,10.87
2018-08-30T02:23:23.886Z,10.37
2018-08-30T02:25:52.944Z,10.80
2018-08-30T02:28:21.525Z,10.40
2018-08-30T02:30:50.021Z,10.00
2018-08-30T02:33:18.707Z,9.87
2018-08-30T02:35:47.232Z,10.10
2018-08-30T02:38:15.666Z,9.70
2018-08-30T02:40:44.933Z,9.43
2018-08-30T02:43:13.579Z,9.87
2018-08-30T02:45:42.010Z,10.47
2018-08-30T02:48:10.553Z,9.60
2018-08-30T02:50:39.115Z,9.77
2018-08-30T02:53:07.685Z,9.80
2018-08-30T02:55:36.067Z,9.57
2018-08-30T02:58:04.768Z,10.10
2018-08-30T03:00:33.213Z,9.77
2018-08-30T03:03:01.703Z,9.77
2018-08-30T03:05:30.259Z,9.07
2018-08-30T03:07:58.876Z,9.33
2018-08-30T03:10:27.325Z,8.53
2018-08-30T03:12:55.874Z,9.17
2018-08-30T03:15:24.348Z,9.43
2018-08-30T03:17:52.760Z,8.97
2018-08-30T03:20:21.358Z,8.70
2018-08-30T03:22:49.785Z,8.53
2018-08-30T03:25:18.220Z,8.13
2018-08-30T03:27:46.779Z,8.60
2018-08-30T03:30:15.392Z,8.30
2018-08-30T03:32:44.043Z,8.30
2018-08-30T03:35:12.552Z,8.43
2018-08-30T03:37:41.661Z,7.77
2018-08-30T03:40:10.092Z,7.70
2018-08-30T03:42:38.597Z,7.20
2018-08-30T03:45:07.758Z,7.33
2018-08-30T03:47:36.984Z,7.30
2018-08-30T03:50:05.700Z,6.77
2018-08-30T03:52:34.297Z,6.80
2018-08-30T03:55:03.225Z,6.90
2018-08-30T03:57:31.768Z,6.50
2018-08-30T04:00:00.184Z,7.07
2018-08-30T04:02:28.780Z,7.13
2018-08-30T04:04:57.317Z,6.70
2018-08-30T04:07:25.892Z,6.13
2018-08-30T04:09:54.476Z,6.43
2018-08-30T04:12:23.102Z,6.23
2018-08-30T04:14:51.813Z,7.07
2018-08-30T04:17:20.243Z,7.23
2018-08-30T04:19:48.809Z,6.73
2018-08-30T04:22:17.245Z,6.20
2018-08-30T04:24:45.644Z,6.00
2018-08-30T04:27:14.077Z,6.10
2018-08-30T04:29:42.514Z,5.50
2018-08-30T04:32:10.965Z,5.33
2018-08-30T04:34:39.572Z,5.10
2018-08-30T04:37:08.635Z,5.70
2018-08-30T04:39:37.024Z,5.47
2018-08-30T04:42:05.696Z,5.97
2018-08-30T04:44:34.207Z,5.07
2018-08-30T04:47:02.645Z,5.57
2018-08-30T04:49:31.240Z,5.60
2018-08-30T04:52:00.082Z,5.40
2018-08-30T04:54:28.540Z,4.63
2018-08-30T04:56:56.946Z,5.30
2018-08-30T04:59:31.906Z,4.70
2018-08-30T05:02:00.352Z,4.97
2018-08-30T05:04:29.462Z,5.37
2018-08-30T05:06:57.968Z,5.10
2018-08-30T05:09:26.466Z,5.47
2018-08-30T05:11:55.048Z,4.80
2018-08-30T05:14:23.897Z,4.20
2018-08-30T05:16:52.656Z,4.53
2018-08-30T05:19:21.066Z,4.87
2018-08-30T05:21:49.721Z,4.33
2018-08-30T05:24:18.308Z,4.93
2018-08-30T05:26:46.759Z,3.77
2018-08-30T05:29:15.978Z,4.50
2018-08-30T05:31:45.303Z,4.27
2018-08-30T05:34:13.917Z,4.67
2018-08-30T05:36:42.314Z,4.40
2018-08-30T05:39:12.730Z,4.87
2018-08-30T05:41:41.624Z,4.03
2018-08-30T05:44:10.353Z,3.90
2018-08-30T05:46:38.867Z,3.77
2018-08-30T05:49:07.591Z,3.70
2018-08-30T05:51:36.703Z,4.10
2018-08-30T05:54:05.472Z,3.87
2018-08-30T05:56:34.144Z,5.00
2018-08-30T05:59:02.745Z,4.73
2018-08-30T06:01:31.229Z,5.13
2018-08-30T06:04:00.068Z,4.50
2018-08-30T06:06:28.585Z,4.13
2018-08-30T06:08:57.065Z,4.30
2018-08-30T06:11:25.955Z,5.03
2018-08-30T06:13:54.357Z,5.13
2018-08-30T06:16:22.790Z,5.63
2018-08-30T06:18:51.262Z,6.67
2018-08-30T06:21:19.913Z,5.80
2018-08-30T06:23:48.536Z,5.77
2018-08-30T06:26:17.927Z,5.63
2018-08-30T06:28:46.397Z,6.23
2018-08-30T06:31:14.803Z,6.37
2018-08-30T06:33:43.991Z,6.03
2018-08-30T06:36:12.613Z,5.87
2018-08-30T06:38:41.261Z,7.33
2018-08-30T06:41:09.820Z,6.50
2018-08-30T06:43:38.278Z,6.47
2018-08-30T06:46:06.879Z,6.70
2018-08-30T06:48:35.505Z,6.13
2018-08-30T06:51:03.865Z,5.80
2018-08-30T06:53:32.946Z,6.20
2018-08-30T06:56:01.581Z,6.10
2018-08-30T06:58:30.291Z,6.00
2018-08-30T07:00:58.873Z,6.53
2018-08-30T07:03:27.279Z,5.77
2018-08-30T07:05:56.299Z,5.87
2018-08-30T07:08:24.907Z,5.03
2018-08-30T07:10:53.333Z,5.47
2018-08-30T07:13:21.942Z,5.13
2018-08-30T07:15:50.650Z,6.00
2018-08-30T07:18:19.097Z,6.10
2018-08-30T07:20:48.049Z,5.67
2018-08-30T07:23:16.686Z,5.97
2018-08-30T07:25:45.160Z,5.80
2018-08-30T07:28:13.776Z,6.13
2018-08-30T07:30:42.281Z,5.73
2018-08-30T07:33:10.711Z,6.03
2018-08-30T07:35:39.384Z,6.90
2018-08-30T07:38:08.004Z,6.27
2018-08-30T07:40:36.449Z,6.57
2018-08-30T07:43:04.938Z,6.70
2018-08-30T07:45:33.345Z,6.67
2018-08-30T07:48:01.825Z,7.83
2018-08-30T07:50:30.766Z,6.97
2018-08-30T07:52:59.869Z,6.60
2018-08-30T07:55:28.832Z,8.40
2018-08-30T07:57:57.396Z,7.30
2018-08-30T08:00:26.444Z,8.63
2018-08-30T08:02:55.412Z,7.53
2018-08-30T08:05:23.963Z,8.00
2018-08-30T08:07:52.571Z,8.97
2018-08-30T08:10:20.989Z,8.00
2018-08-30T08:12:50.148Z,8.63
2018-08-30T08:15:18.816Z,8.80
2018-08-30T08:17:47.321Z,8.50
2018-08-30T08:20:15.932Z,9.47
2018-08-30T08:22:44.580Z,8.77
2018-08-30T08:25:13.064Z,8.73
2018-08-30T08:27:41.505Z,8.27
2018-08-30T08:30:09.924Z,8.10
2018-08-30T08:32:38.478Z,8.23
2018-08-30T08:35:07.441Z,8.60
2018-08-30T08:37:35.957Z,8.63
2018-08-30T08:40:04.679Z,7.93
2018-08-30T08:42:33.081Z,8.43
2018-08-30T08:45:01.700Z,7.57
2018-08-30T08:47:30.220Z,6.93
2018-08-30T08:49:59.185Z,7.20
2018-08-30T08:52:27.683Z,7.10
2018-08-30T08:54:56.115Z,6.87
2018-08-30T08:57:24.496Z,6.57
2018-08-30T08:59:53.591Z,7.57
2018-08-30T09:02:22.589Z,6.53
2018-08-30T09:04:50.984Z,6.73
2018-08-30T09:07:19.399Z,6.10
2018-08-30T09:09:47.920Z,6.80
2018-08-30T09:12:16.777Z,6.53
2018-08-30T09:14:45.297Z,6.43
2018-08-30T09:17:13.828Z,6.00
2018-08-30T09:19:42.276Z,6.40
2018-08-30T09:22:10.656Z,6.53
2018-08-30T09:24:39.089Z,5.63
2018-08-30T09:27:08.217Z,5.50
2018-08-30T09:29:36.804Z,5.00
2018-08-30T09:32:05.805Z,5.20
2018-08-30T09:34:34.218Z,5.20
2018-08-30T09:37:02.719Z,4.87
2018-08-30T09:39:31.191Z,4.43
2018-08-30T09:41:59.901Z,4.40
2018-08-30T09:44:28.820Z,4.07
2018-08-30T09:46:57.216Z,3.73
2018-08-30T09:49:25.857Z,3.93
2018-08-30T09:51:54.599Z,4.30
2018-08-30T09:54:23.012Z,4.00
2018-08-30T09:56:51.905Z,3.80
2018-08-30T09:59:20.438Z,4.17
2018-08-30T10:01:51.009Z,3.73
2018-08-30T10:04:20.191Z,3.40
2018-08-30T10:06:48.605Z,3.37
2018-08-30T10:09:17.032Z,3.60
2018-08-30T10:11:46.187Z,3.80
2018-08-30T10:14:15.513Z,3.23
2018-08-30T10:16:44.291Z,3.50
2018-08-30T10:19:13.312Z,3.37
2018-08-30T10:21:42.070Z,2.70
2018-08-30T10:24:10.477Z,3.30
2018-08-30T10:26:39.193Z,2.80
2018-08-30T10:29:08.236Z,2.80
2018-08-30T10:31:36.824Z,3.23
2018-08-30T10:34:05.180Z,2.60
2018-08-30T10:36:33.775Z,2.50
2018-08-30T10:39:02.651Z,2.40
2018-08-30T10:41:31.120Z,2.93
2018-08-30T10:43:59.603Z,2.70
2018-08-30T10:46:28.610Z,2.43
2018-08-30T10:48:57.108Z,2.20
2018-08-30T10:51:26.231Z,2.17
2018-08-30T10:53:54.935Z,2.10
2018-08-30T10:56:23.494Z,2.57
2018-08-30T10:58:52.099Z,2.40
2018-08-30T11:01:21.492Z,2.30
2018-08-30T11:03:49.905Z,1.93
2018-08-30T11:06:18.405Z,2.00
2018-08-30T11:08:46.949Z,1.60
2018-08-30T11:11:15.627Z,2.07
2018-08-30T11:13:44.221Z,1.87
2018-08-30T11:16:12.665Z,1.80
2018-08-30T11:18:41.280Z,1.90
2018-08-30T11:21:09.940Z,2.00
2018-08-30T11:23:38.984Z,2.03
2018-08-30T11:26:07.669Z,1.70
2018-08-30T11:28:36.126Z,1.27
2018-08-30T11:31:04.997Z,1.30
2018-08-30T11:33:33.393Z,1.63
2018-08-30T11:36:02.221Z,1.83
2018-08-30T11:38:30.614Z,1.33
2018-08-30T11:40:59.706Z,1.70
2018-08-30T11:43:28.318Z,1.80
2018-08-30T11:45:57.022Z,1.43
2018-08-30T11:48:25.528Z,1.50
2018-08-30T11:50:54.115Z,1.40
2018-08-30T11:53:22.585Z,1.47
2018-08-30T11:55:51.275Z,1.90
2018-08-30T11:58:19.856Z,1.50
2018-08-30T12:00:48.833Z,1.50
2018-08-30T12:03:19.531Z,1.40
2018-08-30T12:05:49.069Z,1.50
2018-08-30T12:08:17.613Z,1.30
2018-08-30T12:10:46.113Z,1.43
2018-08-30T12:13:14.455Z,1.33
2018-08-30T12:15:42.975Z,1.57
2018-08-30T12:18:11.655Z,1.10
2018-08-30T12:20:40.498Z,1.50
2018-08-30T12:23:09.500Z,1.30
2018-08-30T12:25:38.058Z,1.30
2018-08-30T12:28:06.567Z,1.33
2018-08-30T12:30:35.128Z,1.13
2018-08-30T12:33:03.851Z,1.27
2018-08-30T12:35:32.553Z,1.30
2018-08-30T12:38:01.052Z,1.30
2018-08-30T12:40:29.787Z,1.20
2018-08-30T12:42:58.381Z,1.10
2018-08-30T12:45:27.587Z,1.13
2018-08-30T12:47:56.217Z,1.40
2018-08-30T12:50:24.842Z,1.30
2018-08-30T12:52:53.441Z,1.27
2018-08-30T12:55:22.115Z,1.57
2018-08-30T12:57:50.482Z,1.20
2018-08-30T13:00:19.183Z,1.20
2018-08-30T13:02:47.617Z,1.23
2018-08-30T13:05:16.262Z,1.20
2018-08-30T13:07:44.866Z,1.10
2018-08-30T13:10:13.475Z,1.10
2018-08-30T13:12:42.134Z,1.53
2018-08-30T13:15:10.762Z,0.90
2018-08-30T13:17:39.095Z,0.90
2018-08-30T13:20:07.754Z,1.40
2018-08-30T13:22:36.672Z,1.10
2018-08-30T13:25:04.934Z,1.10
2018-08-30T13:27:33.256Z,0.80
2018-08-30T13:30:02.809Z,1.20
2018-08-30T13:32:31.178Z,1.20
2018-08-30T13:35:00.852Z,1.07
2018-08-30T13:37:28.999Z,1.20
2018-08-30T13:39:57.371Z,1.40
2018-08-30T13:42:26.022Z,0.93
2018-08-30T13:44:54.738Z,0.97
2018-08-30T13:47:23.894Z,0.90
2018-08-30T13:49:52.000Z,1.20
2018-08-30T13:52:20.799Z,1.23
2018-08-30T13:54:49.091Z,1.23
2018-08-30T13:57:18.360Z,1.10
2018-08-30T13:59:47.429Z,0.90
2018-08-30T14:02:15.791Z,1.17
2018-08-30T14:04:44.178Z,1.30
2018-08-30T14:07:12.804Z,1.40
2018-08-30T14:09:41.249Z,1.23
2018-08-30T14:12:09.930Z,1.40
2018-08-30T14:14:38.888Z,1.33
2018-08-30T14:17:07.629Z,1.30
2018-08-30T14:19:36.111Z,1.50
2018-08-30T14:22:04.615Z,1.63
2018-08-30T14:24:32.953Z,1.40
2018-08-30T14:27:01.583Z,1.70
2018-08-30T14:29:31.139Z,1.70
2018-08-30T14:31:59.879Z,1.97
2018-08-30T14:34:28.426Z,2.20
2018-08-30T14:36:57.297Z,1.80
2018-08-30T14:39:25.899Z,2.03
2018-08-30T14:41:55.017Z,2.43
2018-08-30T14:44:23.541Z,2.20
2018-08-30T14:46:52.228Z,2.73
2018-08-30T14:49:20.736Z,2.43
2018-08-30T14:51:49.213Z,2.77
2018-08-30T14:54:18.223Z,3.00
2018-08-30T14:56:46.635Z,2.90
2018-08-30T14:59:15.053Z,3.03
2018-08-30T15:01:43.421Z,3.17
2018-08-30T15:04:11.862Z,2.90
2018-08-30T15:06:40.275Z,3.30
2018-08-30T15:09:09.003Z,4.00
2018-08-30T15:11:37.575Z,3.40
2018-08-30T15:14:06.149Z,2.83
2018-08-30T15:16:34.506Z,2.90
2018-08-30T15:19:02.957Z,3.17
2018-08-30T15:21:31.500Z,3.93
2018-08-30T15:24:00.097Z,3.40
2018-08-30T15:26:28.637Z,3.87
2018-08-30T15:28:57.229Z,4.30
2018-08-30T15:31:25.956Z,4.00
2018-08-30T15:33:54.461Z,3.67
2018-08-30T15:36:22.962Z,4.47
2018-08-30T15:38:51.896Z,4.73
2018-08-30T15:41:22.435Z,4.70
2018-08-30T15:43:51.589Z,5.50
2018-08-30T15:46:20.246Z,5.03
2018-08-30T15:48:49.034Z,4.07
2018-08-30T15:51:17.681Z,3.80
2018-08-30T15:53:46.671Z,4.63
2018-08-30T15:56:15.338Z,3.73
2018-08-30T15:58:43.678Z,3.57
2018-08-30T16:01:12.142Z,4.07
2018-08-30T16:03:40.694Z,3.73
2018-08-30T16:06:09.104Z,4.13
2018-08-30T16:08:37.636Z,3.47
2018-08-30T16:11:06.284Z,3.73
2018-08-30T16:13:34.804Z,3.20
2018-08-30T16:16:03.710Z,4.30
2018-08-30T16:18:33.119Z,4.30
2018-08-30T16:21:01.824Z,3.63
2018-08-30T16:23:34.795Z,4.50
2018-08-30T16:26:03.813Z,4.70
2018-08-30T16:28:33.373Z,4.70
2018-08-30T16:31:02.820Z,4.30
2018-08-30T16:33:31.413Z,4.67
2018-08-30T16:36:00.034Z,4.33
2018-08-30T16:38:28.572Z,4.50
2018-08-30T16:40:57.084Z,5.07
2018-08-30T16:43:25.598Z,4.80
2018-08-30T16:45:54.223Z,7.57
2018-08-30T16:48:22.685Z,5.50
2018-08-30T16:50:51.942Z,5.40
2018-08-30T16:53:21.972Z,5.93
2018-08-30T16:55:50.931Z,5.67
2018-08-30T16:58:19.508Z,6.13
2018-08-30T17:00:48.218Z,6.93
2018-08-30T17:03:16.633Z,5.43
2018-08-30T17:05:45.390Z,6.93
2018-08-30T17:08:14.030Z,6.93
2018-08-30T17:10:42.762Z,5.93
2018-08-30T17:13:11.355Z,6.17
2018-08-30T17:15:40.453Z,5.93
2018-08-30T17:18:10.720Z,7.10
2018-08-30T17:20:41.216Z,7.10
2018-08-30T17:23:28.093Z,8.57
2018-08-30T17:25:56.955Z,8.57
2018-08-30T17:28:26.416Z,8.97
2018-08-30T17:30:55.780Z,9.23
2018-08-30T17:33:24.367Z,8.90
2018-08-30T17:35:53.890Z,9.50
2018-08-30T17:38:24.504Z,10.00
2018-08-30T17:40:54.226Z,9.63
2018-08-30T17:43:25.503Z,10.70
2018-08-30T17:45:55.556Z,11.50
2018-08-30T17:48:29.381Z,12.83
2018-08-30T17:50:59.146Z,12.27
2018-08-30T17:53:28.103Z,13.90
2018-08-30T17:55:57.967Z,13.23
2018-08-30T17:58:27.245Z,12.20
2018-08-30T18:00:56.163Z,12.73
2018-08-30T18:03:30.268Z,13.53
2018-08-30T18:06:00.019Z,12.63
2018-08-30T18:08:28.874Z,12.30
2018-08-30T18:10:57.563Z,12.80
2018-08-30T18:13:26.318Z,13.20
2018-08-30T18:15:55.058Z,13.07
2018-08-30T18:18:23.659Z,13.30
2018-08-30T18:20:52.249Z,12.93
2018-08-30T18:23:20.825Z,13.90
2018-08-30T18:25:49.377Z,13.50
2018-08-30T18:28:18.114Z,14.33
2018-08-30T18:30:47.071Z,15.63
2018-08-30T18:33:15.839Z,13.43
2018-08-30T18:35:44.774Z,14.60
2018-08-30T18:38:13.811Z,13.47
2018-08-30T18:40:42.632Z,13.40
2018-08-30T18:43:11.792Z,13.97
2018-08-30T18:45:40.474Z,14.80
2018-08-30T18:48:09.428Z,13.73
2018-08-30T18:50:37.997Z,16.17
2018-08-30T18:53:06.585Z,15.67
2018-08-30T18:55:35.125Z,15.27
2018-08-30T18:58:03.631Z,15.37
2018-08-30T19:00:32.453Z,15.97
2018-08-30T19:03:01.033Z,16.77
2018-08-30T19:05:30.574Z,23.70
2018-08-30T19:07:59.285Z,21.73
2018-08-30T19:10:27.752Z,20.53
2018-08-30T19:12:56.730Z,21.90
2018-08-30T19:15:31.393Z,22.13
2018-08-30T19:18:05.716Z,23.47
2018-08-30T19:20:34.716Z,21.70
2018-08-30T19:23:03.939Z,22.03
2018-08-30T19:25:33.080Z,20.83
2018-08-30T19:28:01.641Z,25.57
2018-08-30T19:30:31.929Z,25.13
2018-08-30T19:33:00.904Z,24.37
2018-08-30T19:35:36.205Z,25.20
2018-08-30T19:38:04.742Z,25.20
2018-08-30T19:40:38.624Z,24.63
2018-08-30T19:43:07.200Z,25.50
2018-08-30T19:45:36.065Z,26.43
2018-08-30T19:48:04.782Z,24.07
2018-08-30T19:50:33.344Z,22.30
2018-08-30T19:53:01.783Z,23.83
2018-08-30T19:55:30.572Z,25.87
2018-08-30T19:57:59.734Z,25.17
2018-08-30T20:00:28.427Z,26.90
2018-08-30T20:02:56.853Z,24.80
2018-08-30T20:05:25.698Z,25.43
2018-08-30T20:07:54.106Z,26.30
2018-08-30T20:10:22.637Z,25.40
2018-08-30T20:12:51.037Z,26.67
2018-08-30T20:15:20.204Z,28.77
2018-08-30T20:17:48.848Z,29.73
2018-08-30T20:20:17.483Z,28.33
2018-08-30T20:22:46.196Z,29.60
2018-08-30T20:25:15.346Z,28.47
2018-08-30T20:27:43.885Z,27.70
2018-08-30T20:30:12.299Z,32.97
2018-08-30T20:32:40.977Z,28.53
2018-08-30T20:35:09.521Z,29.97
2018-08-30T20:37:37.983Z,31.00
2018-08-30T20:40:06.444Z,29.40
2018-08-30T20:42:35.093Z,28.10
2018-08-30T20:45:03.661Z,29.43
2018-08-30T20:47:32.820Z,33.20
2018-08-30T20:50:01.988Z,34.53
2018-08-30T20:52:30.481Z,36.83
2018-08-30T20:54:58.944Z,33.47
2018-08-30T20:57:27.868Z,38.13
2018-08-30T20:59:56.570Z,40.33
2018-08-30T21:02:25.411Z,37.33
2018-08-30T21:04:53.989Z,39.57
2018-08-30T21:07:22.378Z,39.13
2018-08-30T21:09:50.813Z,38.93
2018-08-30T21:12:19.290Z,39.50
2018-08-30T21:14:48.216Z,38.53
2018-08-30T21:17:16.899Z,39.37
2018-08-30T21:19:45.338Z,40.20
2018-08-30T21:22:14.008Z,40.13
2018-08-30T21:24:42.445Z,40.87
2018-08-30T21:27:11.041Z,40.50
2018-08-30T21:29:39.625Z,41.43
2018-08-30T21:32:08.167Z,41.83
2018-08-30T21:34:36.796Z,43.70
2018-08-30T21:37:05.283Z,42.67
2018-08-30T21:39:33.700Z,43.73
2018-08-30T21:42:02.208Z,43.50
2018-08-30T21:44:30.721Z,44.10
2018-08-30T21:46:59.404Z,42.93
2018-08-30T21:49:28.007Z,42.30
2018-08-30T21:51:56.478Z,40.90
2018-08-30T21:54:25.087Z,42.17
2018-08-30T21:56:53.622Z,43.93
2018-08-30T21:59:22.852Z,41.90
2018-08-30T22:01:51.453Z,41.77
2018-08-30T22:04:19.878Z,43.13
2018-08-30T22:06:49.192Z,41.60
2018-08-30T22:09:17.717Z,43.70
2018-08-30T22:11:46.474Z,42.13
2018-08-30T22:14:15.557Z,41.80
2018-08-30T22:16:44.114Z,41.10
2018-08-30T22:19:12.565Z,44.73
2018-08-30T22:21:41.030Z,41.17
2018-08-30T22:24:09.652Z,40.33
2018-08-30T22:26:38.254Z,39.97
2018-08-30T22:29:06.682Z,39.60
2018-08-30T22:31:35.161Z,40.27
2018-08-30T22:34:03.923Z,40.20
2018-08-30T22:36:32.366Z,40.07
2018-08-30T22:39:00.996Z,38.13
2018-08-30T22:41:29.566Z,38.50
2018-08-30T22:43:58.171Z,39.47
2018-08-30T22:46:26.573Z,37.23
2018-08-30T22:48:55.178Z,37.63
2018-08-30T22:51:23.666Z,37.87
2018-08-30T22:53:52.303Z,35.40
2018-08-30T22:56:20.936Z,36.87
2018-08-30T22:58:49.843Z,35.03
2018-08-30T23:01:18.871Z,35.03
2018-08-30T23:03:47.371Z,35.17
2018-08-30T23:06:15.941Z,35.87
2018-08-30T23:08:44.439Z,36.20
2018-08-30T23:11:12.974Z,34.40
2018-08-30T23:13:41.483Z,33.83
2018-08-30T23:16:10.160Z,35.97
2018-08-30T23:18:38.728Z,34.53
2018-08-30T23:21:07.266Z,34.27
2018-08-30T23:23:35.888Z,16.07
2018-08-30T23:26:05.966Z,158.60
2018-08-30T23:28:35.033Z,259.93
2018-08-30T23:31:03.590Z,154.50
2018-08-30T23:33:32.405Z,235.60
2018-08-30T23:36:00.984Z,201.43
2018-08-30T23:38:30.249Z,141.27
2018-08-30T23:40:58.854Z,104.97
2018-08-30T23:43:27.652Z,89.40
2018-08-30T23:45:56.800Z,77.53
2018-08-30T23:48:25.270Z,63.97
2018-08-30T23:50:54.199Z,57.23
2018-08-30T23:53:22.913Z,51.10
2018-08-30T23:55:51.365Z,45.93
2018-08-30T23:58:31.065Z,41.17
